Skip Navigation Links Skip Navigation Links

Current Weather

Paso De Los Libres Aerodrome, Paso De Los Libres, Argentina

For information only: do not use for flight planning or navigation.
Latest weather
Observation time Monday, December 16, 2019 5:00 AM ART
Local time Monday, December 16, 2019 6:03 AM ART
Flight conditions Visual Meteorological Conditions
Winds
Wind direction Northeast (50°)
Wind speed 2 mph
Visibility 6.2 mi.
Sky condition
Ceiling unlimited
Sky clear
Temperature 63°F
Dewpoint 63°F
Altimeter 29.80 in.Hg
Derived measurements
Relative humidity 100%
Density altitude 874 ft.
Remarks
Ceiling and visibility OK.
METAR SARL 160800Z 05002KT CAVOK 17/17 Q1009

Settings

Location code

InnerDrive.Weather 4.0.6770.0 Release CLR 4.0.30319.42000
Copyright ©2018 Inner Drive Technology. All rights reserved. Portions Copyright ©1986-2018 David Braverman.

Find weather

Site navigation


Skip Navigation Links

Place info

Page info

PayPal - The safer, easier way to pay online!

Return home.

Copyright ©2019 Inner Drive Technology. Purveyors of fine, hand-crafted computer software. Page printed 2019-12-16T09:03:11 UTC.